Time;durP1;ratioP1;P1;durP2;ratioP2;P2;SDS_P1;SDS_P2;PMS_P1;PMS_P2;Temp;Humidity;BMP_temperature;BMP_pressure;BME280_temperature;BME280_humidity;BME280_pressure;Samples;Min_cycle;Max_cycle;Signal;HPM_P1;HPM_P2
2023/01/20 00:01:46;;;;;;;;;2.00;2.00;;;;;20.31;60.88;100280.83;111696;1250;18222;-68
2023/01/20 00:04:14;;;;;;;;;2.00;2.00;;;;;20.31;60.62;100286.35;111660;1260;19426;-68
2023/01/20 00:06:42;;;;;;;;;2.00;2.00;;;;;20.30;60.81;100286.77;111606;1250;20099;-68
2023/01/20 00:09:09;;;;;;;;;2.00;2.00;;;;;20.28;60.88;100281.72;111948;1260;18229;-69
2023/01/20 00:11:37;;;;;;;;;2.00;2.00;;;;;20.29;60.73;100281.13;111674;1250;19344;-68
2023/01/20 00:14:07;;;;;;;;;3.00;2.00;;;;;20.28;60.68;100283.34;111770;1266;18942;-68
2023/01/20 00:16:36;;;;;;;;;2.00;2.00;;;;;20.29;60.45;100284.73;111673;1260;19597;-68
2023/01/20 00:19:04;;;;;;;;;4.00;4.00;;;;;20.27;60.57;100276.36;111644;1251;19228;-69
2023/01/20 00:21:31;;;;;;;;;2.00;2.00;;;;;20.28;60.75;100279.33;111779;1258;18613;-68
2023/01/20 00:23:58;;;;;;;;;2.00;2.00;;;;;20.27;60.84;100285.05;111500;1250;19546;-68
2023/01/20 00:26:26;;;;;;;;;2.00;2.00;;;;;20.29;60.53;100292.19;111799;1253;17931;-68
2023/01/20 00:28:53;;;;;;;;;2.00;2.00;;;;;20.28;60.70;100301.91;111537;1266;18645;-68
2023/01/20 00:31:20;;;;;;;;;4.00;4.00;;;;;20.28;60.40;100307.70;111939;1266;18256;-69
2023/01/20 00:33:48;;;;;;;;;1.00;1.00;;;;;20.28;60.65;100309.86;111573;1266;19748;-68
2023/01/20 00:36:15;;;;;;;;;4.00;2.00;;;;;20.28;60.50;100314.40;111887;1266;18752;-69
2023/01/20 00:38:42;;;;;;;;;2.00;2.00;;;;;20.28;60.63;100321.10;111652;1258;18233;-68
2023/01/20 00:41:10;;;;;;;;;2.00;2.00;;;;;20.26;60.51;100321.98;111723;1250;17956;-68
2023/01/20 00:43:37;;;;;;;;;2.00;1.00;;;;;20.27;60.44;100326.35;111650;1266;19774;-69
2023/01/20 00:46:05;;;;;;;;;4.50;3.00;;;;;20.26;60.27;100322.77;111844;1250;20805;-69
2023/01/20 00:48:32;;;;;;;;;2.00;2.00;;;;;20.25;60.39;100321.25;111679;1259;17883;-68
2023/01/20 00:50:59;;;;;;;;;2.00;1.50;;;;;20.26;60.45;100325.55;111885;1250;20170;-68
2023/01/20 00:53:27;;;;;;;;;2.00;1.67;;;;;20.26;60.37;100335.09;111642;1266;18194;-69
2023/01/20 00:55:54;;;;;;;;;1.00;1.00;;;;;20.25;60.39;100336.33;111882;1266;17859;-69
2023/01/20 00:58:21;;;;;;;;;2.00;2.00;;;;;20.24;60.30;100341.17;111648;1250;19984;-68
2023/01/20 01:00:49;;;;;;;;;2.00;2.00;;;;;20.24;60.18;100341.71;111593;1254;20821;-68
2023/01/20 01:03:16;;;;;;;;;2.00;2.00;;;;;20.25;60.34;100342.35;111688;1266;17905;-68
2023/01/20 01:05:43;;;;;;;;;3.00;3.00;;;;;20.24;60.39;100342.47;111656;1250;20345;-68
2023/01/20 01:08:11;;;;;;;;;1.50;1.50;;;;;20.23;60.38;100335.47;111658;1266;18260;-68
2023/01/20 01:10:39;;;;;;;;;4.00;2.00;;;;;20.24;60.22;100333.02;111550;1266;17776;-68
2023/01/20 01:13:06;;;;;;;;;2.00;1.00;;;;;20.24;60.19;100328.65;111660;1266;18740;-68
2023/01/20 01:15:33;;;;;;;;;2.00;2.00;;;;;20.24;60.05;100326.77;111507;1254;19641;-68
2023/01/20 01:18:01;;;;;;;;;2.00;2.00;;;;;20.24;60.06;100327.20;111833;1250;19433;-68
2023/01/20 01:20:28;;;;;;;;;1.00;1.00;;;;;20.23;60.16;100325.55;111504;1250;19992;-68
2023/01/20 01:22:55;;;;;;;;;2.00;1.50;;;;;20.24;60.23;100328.61;111893;1266;18650;-68
2023/01/20 01:25:23;;;;;;;;;1.00;1.00;;;;;20.23;60.10;100326.39;111559;1266;19334;-68
2023/01/20 01:27:50;;;;;;;;;1.33;1.33;;;;;20.23;60.24;100327.34;111957;1266;19874;-69
2023/01/20 01:30:17;;;;;;;;;2.00;2.00;;;;;20.23;59.99;100328.43;111597;1260;19450;-68
2023/01/20 01:32:45;;;;;;;;;1.00;1.00;;;;;20.23;60.01;100335.17;111713;1251;19343;-68
2023/01/20 01:35:12;;;;;;;;;1.50;1.50;;;;;20.22;60.07;100333.30;111626;1250;21141;-68
2023/01/20 01:37:39;;;;;;;;;2.00;2.00;;;;;20.22;60.06;100333.60;111783;1251;19700;-68
2023/01/20 01:40:07;;;;;;;;;4.00;2.00;;;;;20.21;60.10;100331.20;111700;1250;19285;-69
2023/01/20 01:42:34;;;;;;;;;2.50;2.50;;;;;20.20;59.88;100331.30;111855;1250;21174;-68
2023/01/20 01:45:01;;;;;;;;;3.00;2.50;;;;;20.21;59.85;100335.00;111708;1250;19627;-68
2023/01/20 01:47:29;;;;;;;;;2.00;2.00;;;;;20.20;59.94;100341.98;111705;1260;17946;-68
2023/01/20 01:49:56;;;;;;;;;4.00;2.00;;;;;20.20;59.82;100343.27;111612;1266;19972;-68
2023/01/20 01:52:23;;;;;;;;;1.67;1.67;;;;;20.21;59.71;100344.11;111498;1266;19611;-68
2023/01/20 01:54:51;;;;;;;;;1.00;1.00;;;;;20.20;59.82;100346.58;111738;1266;17889;-68
2023/01/20 01:57:19;;;;;;;;;1.00;1.00;;;;;20.19;59.85;100345.19;111801;1250;19893;-68
2023/01/20 01:59:46;;;;;;;;;2.00;2.00;;;;;20.20;59.99;100349.46;111692;1250;19640;-69
2023/01/20 02:02:14;;;;;;;;;2.00;2.00;;;;;20.20;59.71;100348.34;111623;1266;19364;-69
2023/01/20 02:04:41;;;;;;;;;1.00;1.00;;;;;20.21;59.72;100351.52;111727;1251;20085;-69
2023/01/20 02:07:09;;;;;;;;;1.50;1.00;;;;;20.20;59.96;100355.25;111594;1266;18228;-68
2023/01/20 02:09:36;;;;;;;;;1.00;1.00;;;;;20.20;59.70;100357.63;111802;1250;19441;-68
2023/01/20 02:12:03;;;;;;;;;1.00;1.00;;;;;20.20;59.70;100370.52;111534;1250;19928;-68
2023/01/20 02:14:31;;;;;;;;;1.00;1.00;;;;;20.20;59.62;100378.52;111873;1250;19660;-68
2023/01/20 02:16:58;;;;;;;;;2.00;2.00;;;;;20.20;59.71;100384.00;111519;1258;18112;-69
2023/01/20 02:19:25;;;;;;;;;1.00;1.00;;;;;20.19;59.53;100384.41;111934;1250;18772;-69
2023/01/20 02:21:53;;;;;;;;;1.00;1.00;;;;;20.19;59.45;100389.89;111609;1250;18451;-68
2023/01/20 02:24:20;;;;;;;;;1.00;1.00;;;;;20.19;59.60;100400.02;111742;1266;17998;-68
2023/01/20 02:26:47;;;;;;;;;2.00;2.00;;;;;20.18;59.54;100411.02;111591;1250;20078;-69
2023/01/20 02:29:15;;;;;;;;;2.00;2.00;;;;;20.18;59.43;100412.98;111718;1266;19838;-68
2023/01/20 02:31:42;;;;;;;;;2.00;2.00;;;;;20.19;59.68;100411.96;111641;1250;19792;-68
2023/01/20 02:34:09;;;;;;;;;1.00;1.00;;;;;20.18;59.54;100410.94;111848;1259;18591;-68
2023/01/20 02:36:37;;;;;;;;;1.00;1.00;;;;;20.19;59.41;100413.09;111694;1266;18374;-69
2023/01/20 02:39:04;;;;;;;;;2.00;2.00;;;;;20.18;59.56;100415.75;111870;1250;19317;-69
2023/01/20 02:41:32;;;;;;;;;1.50;1.50;;;;;20.18;59.49;100419.14;111587;1253;20005;-68
2023/01/20 02:43:59;;;;;;;;;1.50;1.50;;;;;20.18;59.58;100422.45;111850;1266;19566;-69
2023/01/20 02:46:26;;;;;;;;;2.00;2.00;;;;;20.18;59.40;100423.41;111686;1250;19255;-68
2023/01/20 02:48:53;;;;;;;;;1.00;1.00;;;;;20.17;59.51;100423.89;111648;1250;20018;-69
2023/01/20 02:51:21;;;;;;;;;2.00;2.00;;;;;20.17;59.59;100424.70;111779;1266;18200;-68
2023/01/20 02:53:48;;;;;;;;;2.00;2.00;;;;;20.17;59.50;100421.71;111502;1250;19371;-68
2023/01/20 02:56:15;;;;;;;;;2.00;1.00;;;;;20.16;59.42;100425.05;111915;1250;19959;-68
2023/01/20 02:58:43;;;;;;;;;2.00;2.00;;;;;20.17;59.57;100423.52;111566;1266;18254;-68
2023/01/20 03:01:11;;;;;;;;;2.00;1.00;;;;;20.17;59.40;100421.14;111894;1266;19192;-69
2023/01/20 03:03:38;;;;;;;;;1.00;1.00;;;;;20.16;59.48;100419.06;111514;1250;18881;-68
2023/01/20 03:06:06;;;;;;;;;2.00;2.00;;;;;20.17;59.13;100421.27;111805;1250;18252;-68
2023/01/20 03:08:33;;;;;;;;;2.00;2.00;;;;;20.16;59.37;100419.42;111558;1266;18130;-68
2023/01/20 03:11:00;;;;;;;;;2.00;2.00;;;;;20.16;59.18;100413.30;111964;1266;18432;-69
2023/01/20 03:13:28;;;;;;;;;2.00;2.00;;;;;20.15;59.32;100409.91;111611;1250;19779;-68
2023/01/20 03:15:55;;;;;;;;;2.00;1.00;;;;;20.16;59.26;100409.84;111688;1253;20493;-68
2023/01/20 03:18:22;;;;;;;;;2.00;2.00;;;;;20.16;59.23;100413.48;111652;1260;18958;-71
2023/01/20 03:20:50;;;;;;;;;2.00;1.67;;;;;20.15;59.34;100414.09;111784;1260;18193;-68
2023/01/20 03:23:17;;;;;;;;;1.00;1.00;;;;;20.16;59.29;100415.08;111614;1266;17903;-68
2023/01/20 03:25:45;;;;;;;;;3.50;2.50;;;;;20.15;59.31;100412.45;111827;1266;19861;-69
2023/01/20 03:28:12;;;;;;;;;1.00;1.00;;;;;20.16;59.01;100414.39;111617;1266;19505;-69
2023/01/20 03:30:39;;;;;;;;;2.00;2.00;;;;;20.14;59.17;100415.08;111972;1266;17998;-69
2023/01/20 03:33:07;;;;;;;;;1.33;1.00;;;;;20.14;59.18;100411.56;111587;1250;19944;-68
2023/01/20 03:35:34;;;;;;;;;2.00;2.00;;;;;20.14;59.06;100415.88;111813;1250;19661;-69
2023/01/20 03:38:01;;;;;;;;;2.00;1.00;;;;;20.14;58.94;100416.45;111708;1250;19343;-69
2023/01/20 03:40:29;;;;;;;;;2.00;2.00;;;;;20.14;59.09;100413.33;111675;1250;18538;-68
2023/01/20 03:42:56;;;;;;;;;2.00;1.00;;;;;20.13;59.18;100413.05;111758;1250;19950;-68
2023/01/20 03:45:23;;;;;;;;;2.00;2.00;;;;;20.13;58.94;100410.71;111542;1266;18293;-68
2023/01/20 03:47:51;;;;;;;;;2.00;1.50;;;;;20.13;58.97;100407.41;111836;1250;19974;-68
2023/01/20 03:50:18;;;;;;;;;2.00;2.00;;;;;20.13;58.95;100408.77;111540;1250;19724;-68
2023/01/20 03:52:45;;;;;;;;;1.00;1.00;;;;;20.13;58.85;100413.64;111886;1266;19264;-69
2023/01/20 03:55:13;;;;;;;;;2.00;2.00;;;;;20.13;58.98;100420.38;111591;1250;20103;-68
2023/01/20 03:57:40;;;;;;;;;2.50;2.50;;;;;20.13;58.95;100425.07;111907;1266;19531;-68
2023/01/20 04:00:08;;;;;;;;;2.00;2.00;;;;;20.12;59.07;100429.83;111613;1266;17891;-68
2023/01/20 04:02:35;;;;;;;;;1.00;1.00;;;;;20.12;58.82;100436.36;111717;1266;19951;-69
2023/01/20 04:05:02;;;;;;;;;3.00;2.00;;;;;20.14;58.78;100437.09;111626;1250;19730;-68
2023/01/20 04:07:30;;;;;;;;;4.00;2.00;;;;;20.13;58.97;100440.50;111800;1266;18185;-68
2023/01/20 04:09:57;;;;;;;;;2.00;2.00;;;;;20.13;59.03;100448.63;111697;1266;18533;-69
2023/01/20 04:12:24;;;;;;;;;1.00;1.00;;;;;20.13;58.71;100452.99;111885;1250;19599;-69
2023/01/20 04:14:52;;;;;;;;;2.00;2.00;;;;;20.12;58.81;100459.67;111638;1250;17904;-68
2023/01/20 04:17:19;;;;;;;;;2.00;2.00;;;;;20.12;58.98;100469.50;111803;1266;18820;-68
2023/01/20 04:19:46;;;;;;;;;2.00;2.00;;;;;20.12;58.81;100471.80;111655;1250;19680;-71
2023/01/20 04:22:14;;;;;;;;;2.00;2.00;;;;;20.13;58.83;100475.84;111711;1266;17901;-67
2023/01/20 04:24:41;;;;;;;;;1.00;1.00;;;;;20.11;58.80;100482.05;111706;1250;19857;-68
2023/01/20 04:27:08;;;;;;;;;2.00;1.33;;;;;20.11;58.74;100485.70;111530;1251;18259;-68
2023/01/20 04:29:36;;;;;;;;;2.00;2.00;;;;;20.11;58.64;100487.10;111732;1266;17897;-68
2023/01/20 04:32:03;;;;;;;;;2.00;2.00;;;;;20.11;58.80;100488.83;111462;1252;20548;-68
2023/01/20 04:34:30;;;;;;;;;2.00;2.00;;;;;20.10;58.79;100491.41;111851;1260;19488;-68
2023/01/20 04:36:58;;;;;;;;;2.00;2.00;;;;;20.10;58.54;100493.92;111556;1250;19508;-69
2023/01/20 04:39:25;;;;;;;;;2.00;2.00;;;;;20.10;58.63;100490.52;111923;1259;18763;-69
2023/01/20 04:41:53;;;;;;;;;1.00;1.00;;;;;20.10;58.80;100491.99;111595;1251;20514;-69
2023/01/20 04:44:20;;;;;;;;;2.00;2.00;;;;;20.10;58.67;100498.69;111958;1259;17924;-69
2023/01/20 04:46:47;;;;;;;;;2.00;2.00;;;;;20.09;58.80;100496.57;111621;1266;18554;-68
2023/01/20 04:49:15;;;;;;;;;1.33;1.33;;;;;20.08;58.48;100501.45;111737;1250;18160;-68
2023/01/20 04:51:42;;;;;;;;;1.00;1.00;;;;;20.09;58.64;100500.92;111679;1250;19508;-68
2023/01/20 04:54:09;;;;;;;;;2.00;2.00;;;;;20.10;58.68;100506.16;111629;1251;211236;-69
2023/01/20 04:56:37;;;;;;;;;4.00;2.00;;;;;20.08;58.58;100503.25;111687;1266;19860;-68
2023/01/20 04:59:04;;;;;;;;;4.00;2.00;;;;;20.08;58.68;100507.98;111852;1266;18078;-69
2023/01/20 05:01:31;;;;;;;;;1.00;1.00;;;;;20.09;58.61;100516.05;111732;1251;20396;-69
2023/01/20 05:03:59;;;;;;;;;1.00;1.00;;;;;20.09;58.40;100519.33;111671;1266;18236;-69
2023/01/20 05:06:26;;;;;;;;;2.00;2.00;;;;;20.09;58.66;100522.17;111642;1250;19252;-68
2023/01/20 05:08:53;;;;;;;;;1.00;1.00;;;;;20.09;58.42;100521.09;111496;1251;18535;-68
2023/01/20 05:11:21;;;;;;;;;4.00;4.00;;;;;20.09;58.63;100520.79;111719;1250;19632;-68
2023/01/20 05:13:48;;;;;;;;;2.00;2.00;;;;;20.08;58.50;100519.36;111638;1266;17911;-68
2023/01/20 05:16:22;;;;;;;;;1.00;1.00;;;;;20.08;58.58;100523.00;111765;1266;18559;-68
2023/01/20 05:18:49;;;;;;;;;1.00;1.00;;;;;20.08;58.48;100529.77;111854;1259;18566;-70
2023/01/20 05:21:16;;;;;;;;;2.00;2.00;;;;;20.08;58.50;100532.25;111712;1266;17851;-68
2023/01/20 05:23:44;;;;;;;;;2.00;2.00;;;;;20.08;58.40;100536.86;111591;1251;19991;-69
2023/01/20 05:26:11;;;;;;;;;2.00;2.00;;;;;20.07;58.26;100535.34;111757;1266;18692;-68
2023/01/20 05:28:39;;;;;;;;;1.50;1.50;;;;;20.07;58.23;100541.08;111582;1252;17987;-68
2023/01/20 05:31:06;;;;;;;;;4.00;2.00;;;;;20.07;58.37;100544.38;111554;1264;18839;-69
2023/01/20 05:33:34;;;;;;;;;1.00;1.00;;;;;20.07;58.37;100553.25;111536;1253;20998;-68
2023/01/20 05:36:01;;;;;;;;;4.00;2.00;;;;;20.07;58.34;100555.42;111845;1266;17874;-69
2023/01/20 05:38:28;;;;;;;;;2.00;2.00;;;;;20.06;58.43;100561.14;111513;1250;20123;-68
2023/01/20 05:40:56;;;;;;;;;2.00;1.00;;;;;20.06;58.25;100566.05;111866;1266;18220;-69
2023/01/20 05:43:23;;;;;;;;;1.00;1.00;;;;;20.06;58.20;100569.67;111507;1266;19250;-68
2023/01/20 05:45:50;;;;;;;;;1.00;1.00;;;;;20.06;58.34;100573.94;111722;1253;20119;-68
2023/01/20 05:48:18;;;;;;;;;4.00;3.00;;;;;20.05;58.17;100578.23;111574;1266;18420;-68
2023/01/20 05:50:45;;;;;;;;;3.00;2.00;;;;;20.04;58.31;100581.14;111780;1266;17930;-68
2023/01/20 05:53:12;;;;;;;;;1.00;1.00;;;;;20.04;58.19;100579.71;111684;1259;18894;-68
2023/01/20 05:55:40;;;;;;;;;1.33;1.33;;;;;20.04;58.23;100582.27;111754;1266;19863;-69
2023/01/20 05:58:07;;;;;;;;;2.00;2.00;;;;;20.05;58.18;100591.94;111635;1266;17901;-69
2023/01/20 06:00:34;;;;;;;;;2.00;2.00;;;;;20.04;58.20;100596.38;111855;1252;19984;-69
2023/01/20 06:03:02;;;;;;;;;2.00;2.00;;;;;20.05;58.09;100603.02;111531;1253;20817;-68
2023/01/20 06:05:29;;;;;;;;;1.00;1.00;;;;;20.05;58.02;100605.77;111878;1253;19129;-69
2023/01/20 06:07:57;;;;;;;;;1.00;1.00;;;;;20.04;58.00;100609.98;111584;1252;20062;-69
2023/01/20 06:10:26;;;;;;;;;2.00;1.50;;;;;20.04;57.96;100616.17;111771;1259;18250;-69
2023/01/20 06:12:54;;;;;;;;;2.00;2.00;;;;;20.03;58.21;100619.57;111702;1254;19453;-68
2023/01/20 06:15:22;;;;;;;;;4.00;4.00;;;;;20.04;58.14;100624.89;111810;1266;19904;-68
2023/01/20 06:17:49;;;;;;;;;2.00;2.00;;;;;20.04;58.17;100627.60;112004;1250;21155;-69
2023/01/20 06:20:17;;;;;;;;;2.00;2.00;;;;;20.03;58.04;100631.67;111703;1266;19225;-68
2023/01/20 06:22:44;;;;;;;;;1.00;1.00;;;;;20.03;58.19;100637.70;111751;1260;18894;-69
2023/01/20 06:25:12;;;;;;;;;2.50;2.50;;;;;20.03;57.95;100638.78;111738;1250;19926;-69
2023/01/20 06:27:39;;;;;;;;;2.00;2.00;;;;;20.02;57.98;100642.84;111762;1266;18109;-69
2023/01/20 06:30:06;;;;;;;;;1.50;1.50;;;;;20.03;58.04;100643.54;111761;1250;19995;-69
2023/01/20 06:32:34;;;;;;;;;2.00;2.00;;;;;20.03;58.03;100644.98;111588;1266;18221;-68
2023/01/20 06:35:01;;;;;;;;;3.00;3.00;;;;;20.03;57.78;100648.61;111800;1250;19339;-69
2023/01/20 06:37:29;;;;;;;;;1.33;1.33;;;;;20.02;58.00;100654.09;111526;1266;19931;-68
2023/01/20 06:39:56;;;;;;;;;2.00;2.00;;;;;20.03;57.93;100658.20;111639;1250;19607;-69
2023/01/20 06:42:23;;;;;;;;;1.00;1.00;;;;;20.02;57.85;100665.73;111515;1267;17955;-69
2023/01/20 06:44:51;;;;;;;;;4.00;2.00;;;;;20.02;57.86;100673.67;111562;1254;20375;-69
2023/01/20 06:47:18;;;;;;;;;2.00;2.00;;;;;20.01;58.03;100679.03;111521;1252;19615;-70
2023/01/20 06:49:45;;;;;;;;;2.00;2.00;;;;;20.00;57.73;100682.23;111692;1250;17939;-68
2023/01/20 06:52:13;;;;;;;;;2.50;2.00;;;;;20.01;57.88;100688.66;111551;1266;19751;-69
2023/01/20 06:54:40;;;;;;;;;2.00;2.00;;;;;20.01;57.76;100695.56;111862;1259;18807;-69
2023/01/20 06:57:07;;;;;;;;;2.00;2.00;;;;;20.00;57.75;100702.73;111604;1259;20548;-69
2023/01/20 06:59:35;;;;;;;;;2.00;2.00;;;;;20.00;57.64;100708.18;111881;1266;18693;-69
2023/01/20 07:02:02;;;;;;;;;2.00;2.00;;;;;20.00;57.83;100715.48;111641;1266;18209;-70
2023/01/20 07:04:30;;;;;;;;;1.50;1.50;;;;;20.00;57.77;100717.43;111772;1250;17906;-68
2023/01/20 07:06:57;;;;;;;;;1.00;1.00;;;;;20.03;57.77;100724.80;111598;1267;18542;-67
2023/01/20 07:09:24;;;;;;;;;3.00;3.00;;;;;20.03;57.81;100722.89;111972;1267;18217;-67
2023/01/20 07:11:52;;;;;;;;;2.00;2.00;;;;;20.07;57.80;100726.19;111656;1259;17931;-68
2023/01/20 07:14:19;;;;;;;;;2.00;2.00;;;;;20.09;57.93;100727.58;111493;1267;18611;-69
2023/01/20 07:16:46;;;;;;;;;2.00;2.00;;;;;20.10;58.02;100735.81;111531;1250;19479;-68
2023/01/20 07:19:14;;;;;;;;;2.00;2.00;;;;;20.09;57.93;100734.11;111688;1266;17984;-68
2023/01/20 07:21:41;;;;;;;;;2.33;2.33;;;;;20.07;58.02;100741.19;111681;1266;18570;-68
2023/01/20 07:26:35;;;;;;;;;4.00;4.00;;;;;20.05;58.21;100738.03;111724;1258;17265;-71
2023/01/20 07:31:09;;;;;;;;;3.00;2.00;;;;;20.10;58.26;100739.62;107039;1302;18001;-36
2023/01/20 07:33:36;;;;;;;;;2.00;2.00;;;;;20.14;58.08;100750.31;108793;1261;21673;-35
2023/01/20 07:36:04;;;;;;;;;3.00;3.00;;;;;20.09;58.02;100761.08;108861;1263;21499;-35
2023/01/20 07:38:31;;;;;;;;;1.00;1.00;;;;;20.05;58.18;100763.38;108860;1276;17784;-35
2023/01/20 07:40:58;;;;;;;;;2.00;2.00;;;;;20.02;58.08;100767.82;108832;1276;21638;-35
2023/01/20 07:43:26;;;;;;;;;2.00;2.00;;;;;20.03;57.96;100768.64;108780;1263;19598;-36
2023/01/20 07:45:53;;;;;;;;;2.00;2.00;;;;;20.02;57.96;100776.23;108898;1261;86433;-35
2023/01/20 07:48:20;;;;;;;;;2.00;2.00;;;;;20.02;58.14;100779.96;108765;1274;19009;-35
2023/01/20 07:50:48;;;;;;;;;4.00;3.33;;;;;20.01;57.87;100779.56;108821;1260;20683;-36
2023/01/20 07:53:15;;;;;;;;;4.00;4.00;;;;;20.04;58.15;100777.31;108840;1263;21700;-35
2023/01/20 07:55:43;;;;;;;;;4.67;4.67;;;;;20.07;57.87;100784.39;108898;1260;20740;-36
2023/01/20 07:58:10;;;;;;;;;4.00;4.00;;;;;20.09;57.90;100785.54;108818;1275;18223;-34
2023/01/20 08:00:37;;;;;;;;;4.00;4.00;;;;;20.13;57.78;100794.14;108772;1275;19223;-35
2023/01/20 08:03:05;;;;;;;;;5.00;5.00;;;;;20.17;58.05;100793.02;108810;1262;19837;-35
2023/01/20 08:05:32;;;;;;;;;64.00;48.67;;;;;20.19;58.07;100797.37;108859;1273;19789;-38
2023/01/20 08:07:59;;;;;;;;;80.00;60.00;;;;;20.21;58.41;100803.12;108840;1275;18161;-36
2023/01/20 08:10:28;;;;;;;;;94.00;67.00;;;;;20.20;58.33;100809.23;108787;1263;21905;-37
2023/01/20 08:12:55;;;;;;;;;84.33;65.00;;;;;20.19;58.48;100811.69;108839;1275;20332;-36
2023/01/20 08:15:22;;;;;;;;;77.00;56.00;;;;;20.19;58.71;100810.54;109419;1257;19658;-38
2023/01/20 08:17:50;;;;;;;;;62.50;46.50;;;;;20.20;58.70;100814.04;110097;1251;19779;-36
2023/01/20 08:20:17;;;;;;;;;54.00;44.00;;;;;20.22;58.73;100816.96;110135;1253;23045;-36
2023/01/20 08:22:44;;;;;;;;;54.00;42.50;;;;;20.23;58.97;100822.98;110150;1254;19665;-37
2023/01/20 08:25:12;;;;;;;;;48.00;38.00;;;;;20.23;59.24;100829.38;110138;1266;18829;-35
2023/01/20 08:27:39;;;;;;;;;34.33;32.00;;;;;20.25;59.09;100826.59;110283;1250;20000;-36
2023/01/20 08:30:06;;;;;;;;;34.00;31.00;;;;;20.30;59.20;100825.32;110343;1254;19517;-37
2023/01/20 08:32:34;;;;;;;;;31.00;28.00;;;;;20.30;59.16;100829.16;110319;1266;19949;-36
2023/01/20 08:35:01;;;;;;;;;37.00;34.00;;;;;20.28;59.31;100833.87;110342;1259;19938;-37
2023/01/20 08:37:28;;;;;;;;;51.00;41.00;;;;;20.26;59.27;100838.11;110300;1254;19557;-37
2023/01/20 08:39:55;;;;;;;;;54.00;43.50;;;;;20.25;59.32;100842.23;110264;1260;19717;-37
2023/01/20 08:42:23;;;;;;;;;66.50;48.00;;;;;20.23;59.16;100845.30;110243;1266;18571;-36
2023/01/20 08:44:50;;;;;;;;;69.50;53.50;;;;;20.22;59.16;100847.59;110247;1259;19602;-36
2023/01/20 08:47:17;;;;;;;;;74.50;54.00;;;;;20.24;59.15;100848.98;110249;1254;22307;-35
2023/01/20 08:49:45;;;;;;;;;61.33;47.00;;;;;20.26;59.00;100848.64;110266;1254;20237;-36
2023/01/20 08:52:12;;;;;;;;;46.50;40.00;;;;;20.24;58.97;100850.67;110272;1260;19453;-36
2023/01/20 08:54:39;;;;;;;;;42.50;33.50;;;;;20.26;59.06;100850.98;110260;1254;19770;-35
2023/01/20 08:57:07;;;;;;;;;39.00;33.00;;;;;20.27;59.10;100850.54;110246;1254;20030;-35
2023/01/20 08:59:34;;;;;;;;;39.00;32.00;;;;;20.24;59.36;100854.49;110247;1266;18349;-35
2023/01/20 09:02:01;;;;;;;;;26.00;25.00;;;;;20.21;59.16;100852.78;110152;1255;21001;-35
2023/01/20 09:04:29;;;;;;;;;31.00;25.00;;;;;20.21;59.29;100855.36;110201;1266;18566;-35
2023/01/20 09:06:57;;;;;;;;;24.50;24.50;;;;;20.19;59.41;100851.93;110174;1265;21756;-36
2023/01/20 09:09:24;;;;;;;;;23.00;20.00;;;;;20.22;59.12;100852.89;110239;1251;18411;-35
2023/01/20 09:11:51;;;;;;;;;19.50;16.00;;;;;20.21;59.18;100855.29;110273;1260;19839;-36
2023/01/20 09:14:19;;;;;;;;;19.00;14.00;;;;;20.20;59.26;100860.50;110192;1265;20798;-37
2023/01/20 09:16:46;;;;;;;;;15.00;13.00;;;;;20.20;59.33;100865.05;110208;1251;19760;-35
2023/01/20 09:19:13;;;;;;;;;19.00;16.00;;;;;20.21;59.39;100864.62;110172;1265;19284;-35
2023/01/20 09:21:41;;;;;;;;;14.33;13.00;;;;;20.21;59.28;100858.55;110196;1266;18123;-35
2023/01/20 09:24:08;;;;;;;;;11.50;11.00;;;;;20.21;59.24;100859.11;110178;1266;18424;-35
2023/01/20 09:26:38;;;;;;;;;15.00;13.00;;;;;20.19;59.35;100857.67;110210;1253;20043;-34
2023/01/20 09:29:08;;;;;;;;;16.00;14.00;;;;;20.19;59.14;100858.05;110270;1255;19871;-35
2023/01/20 09:31:36;;;;;;;;;12.50;10.00;;;;;20.18;59.21;100862.38;110268;1250;18347;-36
2023/01/20 09:34:03;;;;;;;;;16.00;11.00;;;;;20.15;59.12;100861.41;110224;1253;20038;-35
2023/01/20 09:36:30;;;;;;;;;10.00;10.00;;;;;20.13;59.22;100861.66;110221;1266;19411;-36
2023/01/20 09:44:36;;;;;;;;;11.50;9.00;;;;;20.13;59.01;100871.45;109407;1272;18055;-35
2023/01/20 09:47:21;;;;;;;;;7.33;7.00;;;;;20.13;59.03;100871.99;109450;1263;21699;-36
2023/01/20 09:55:19;;;;;;;;;7.00;7.00;;;;;20.13;59.04;100862.65;109446;1272;19780;-37
2023/01/20 09:57:47;;;;;;;;;8.00;7.33;;;;;20.12;58.86;100865.75;109452;1256;20036;-36
2023/01/20 10:00:15;;;;;;;;;10.00;8.00;;;;;20.14;58.78;100870.43;109434;1272;17766;-35
2023/01/20 10:02:43;;;;;;;;;7.00;7.00;;;;;20.15;58.91;100880.36;109460;1256;19817;-36
2023/01/20 10:05:10;;;;;;;;;5.00;5.00;;;;;20.15;59.00;100886.47;109446;1272;19962;-36
2023/01/20 10:07:37;;;;;;;;;10.00;8.00;;;;;20.16;59.04;100883.63;109428;1272;21678;-36
2023/01/20 10:10:05;;;;;;;;;5.00;5.00;;;;;20.19;59.04;100890.04;109418;1256;19912;-36
2023/01/20 10:12:32;;;;;;;;;7.00;7.00;;;;;20.18;58.82;100894.49;109464;1257;20052;-36
2023/01/20 10:14:59;;;;;;;;;8.00;5.00;;;;;20.16;59.09;100899.98;109466;1256;22307;-34
2023/01/20 10:17:27;;;;;;;;;8.00;5.00;;;;;20.17;58.94;100899.36;109591;1257;20099;-37
2023/01/20 10:19:55;;;;;;;;;6.50;6.50;;;;;20.17;58.97;100896.74;110245;1264;20911;-36
2023/01/20 10:22:22;;;;;;;;;5.00;5.00;;;;;20.16;58.88;100889.52;110219;1266;21778;-34
2023/01/20 10:24:51;;;;;;;;;8.00;7.00;;;;;20.15;58.71;100881.42;110214;1258;19037;-35
2023/01/20 10:27:19;;;;;;;;;5.00;5.00;;;;;20.14;58.52;100873.40;110128;1254;19649;-35
2023/01/20 10:29:46;;;;;;;;;7.00;5.00;;;;;20.12;58.60;100872.35;110072;1267;19154;-35
2023/01/20 10:32:13;;;;;;;;;7.00;4.00;;;;;20.11;58.57;100870.59;110092;1267;18844;-35
2023/01/20 10:34:41;;;;;;;;;4.50;4.50;;;;;20.11;58.59;100862.15;110093;1254;19638;-35
2023/01/20 10:37:08;;;;;;;;;5.00;5.00;;;;;20.10;58.62;100864.25;110118;1251;20198;-35
2023/01/20 10:39:35;;;;;;;;;4.00;4.00;;;;;20.09;58.67;100868.31;110122;1267;18409;-35
2023/01/20 10:42:03;;;;;;;;;4.00;3.00;;;;;20.08;58.63;100876.58;110125;1267;19177;-36
2023/01/20 10:44:30;;;;;;;;;4.50;4.50;;;;;20.07;58.57;100875.02;110105;1260;19140;-35
2023/01/20 10:46:57;;;;;;;;;4.00;4.00;;;;;20.08;58.60;100881.99;110085;1267;18369;-34
2023/01/20 10:49:25;;;;;;;;;5.50;4.00;;;;;20.08;58.57;100886.15;110115;1251;20770;-34
2023/01/20 10:51:52;;;;;;;;;5.00;4.00;;;;;20.07;58.40;100885.40;110086;1267;17817;-35
2023/01/20 10:54:20;;;;;;;;;4.00;4.00;;;;;20.06;58.42;100885.91;110074;1251;20865;-35
2023/01/20 10:56:52;;;;;;;;;8.00;4.00;;;;;20.06;58.46;100883.57;110102;1267;22717;-35
2023/01/20 10:59:19;;;;;;;;;4.00;4.00;;;;;20.06;58.43;100888.60;110154;1267;17737;-35
2023/01/20 11:01:46;;;;;;;;;4.00;4.00;;;;;20.07;58.22;100901.25;110106;1260;19753;-35
2023/01/20 11:04:14;;;;;;;;;3.00;3.00;;;;;20.05;58.39;100904.68;110096;1267;21905;-35
2023/01/20 11:06:41;;;;;;;;;2.00;2.00;;;;;20.05;58.13;100909.37;110129;1267;17732;-35
2023/01/20 11:09:09;;;;;;;;;2.00;2.00;;;;;20.04;58.27;100919.30;110107;1267;19055;-35
2023/01/20 11:11:36;;;;;;;;;2.00;2.00;;;;;20.04;58.29;100921.46;110112;1252;19662;-35
2023/01/20 11:14:03;;;;;;;;;3.67;2.33;;;;;20.05;58.20;100923.55;110108;1254;19289;-35
2023/01/20 11:16:31;;;;;;;;;4.50;4.50;;;;;20.06;57.96;100928.66;110118;1260;18402;-35
2023/01/20 11:18:58;;;;;;;;;8.00;7.00;;;;;19.99;56.87;100928.71;110143;1267;18241;-36
2023/01/20 11:21:25;;;;;;;;;12.00;11.00;;;;;19.74;54.97;100930.29;110088;1267;21743;-36
2023/01/20 11:23:54;;;;;;;;;15.00;13.00;;;;;19.56;53.53;100930.27;110114;1267;18428;-37
2023/01/20 11:26:21;;;;;;;;;16.33;13.33;;;;;19.47;52.51;100936.48;110109;1253;20069;-35
2023/01/20 11:28:49;;;;;;;;;15.67;14.33;;;;;19.39;51.44;100944.14;110136;1260;19468;-36
2023/01/20 11:31:16;;;;;;;;;15.00;15.00;;;;;19.33;50.73;100949.98;110147;1267;18389;-34